createdAt,value
2018-04-08T00:00:46.269Z,90.00
2018-04-08T00:03:13.700Z,90.00
2018-04-08T00:05:41.105Z,90.20
2018-04-08T00:08:08.530Z,90.20
2018-04-08T00:10:35.951Z,90.40
2018-04-08T00:13:03.356Z,90.70
2018-04-08T00:15:30.767Z,90.90
2018-04-08T00:17:58.184Z,90.70
2018-04-08T00:20:26.367Z,90.80
2018-04-08T00:22:53.784Z,90.80
2018-04-08T00:25:21.958Z,91.00
2018-04-08T00:27:49.387Z,91.00
2018-04-08T00:30:16.800Z,91.80
2018-04-08T00:32:44.228Z,91.20
2018-04-08T00:35:11.628Z,91.10
2018-04-08T00:37:39.056Z,91.10
2018-04-08T00:40:06.464Z,91.30
2018-04-08T00:42:33.880Z,91.30
2018-04-08T00:45:01.292Z,92.20
2018-04-08T00:47:28.725Z,91.90
2018-04-08T00:49:56.876Z,92.10
2018-04-08T00:52:24.296Z,92.10
2018-04-08T00:54:52.488Z,92.30
2018-04-08T00:57:19.892Z,92.30
2018-04-08T00:59:48.072Z,92.80
2018-04-08T01:02:16.245Z,92.90
2018-04-08T01:04:43.649Z,92.80
2018-04-08T01:07:11.081Z,93.10
2018-04-08T01:09:38.505Z,92.90
2018-04-08T01:12:05.957Z,92.80
2018-04-08T01:14:33.377Z,92.70
2018-04-08T01:17:00.771Z,92.90
2018-04-08T01:19:28.944Z,93.60
2018-04-08T01:21:56.380Z,93.60
2018-04-08T01:24:23.800Z,94.50
2018-04-08T01:26:51.976Z,94.80
2018-04-08T01:29:20.148Z,95.00
2018-04-08T01:31:47.581Z,95.00
2018-04-08T01:34:15.048Z,94.90
2018-04-08T01:36:42.456Z,95.00
2018-04-08T01:39:10.652Z,95.10
2018-04-08T01:41:38.061Z,95.10
2018-04-08T01:44:05.492Z,95.30
2018-04-08T01:46:33.660Z,95.60
2018-04-08T01:49:01.079Z,95.50
2018-04-08T01:51:28.506Z,95.70
2018-04-08T01:53:56.012Z,95.80
2018-04-08T01:56:23.428Z,96.40
2018-04-08T01:58:51.612Z,96.40
2018-04-08T02:01:19.008Z,96.30
2018-04-08T02:03:46.427Z,96.80
2018-04-08T02:06:13.830Z,97.00
2018-04-08T02:08:41.232Z,96.90
2018-04-08T02:11:09.409Z,97.30
2018-04-08T02:13:36.817Z,97.30
2018-04-08T02:16:04.238Z,97.40
2018-04-08T02:18:31.648Z,97.50
2018-04-08T02:20:59.085Z,97.60
2018-04-08T02:23:26.532Z,97.90
2018-04-08T02:25:53.954Z,97.90
2018-04-08T02:28:22.139Z,98.50
2018-04-08T02:30:49.545Z,98.50
2018-04-08T02:33:17.724Z,99.10
2018-04-08T02:35:45.125Z,99.10
2018-04-08T02:38:12.557Z,98.90
2018-04-08T02:40:39.967Z,99.20
2018-04-08T02:43:07.377Z,99.30
2018-04-08T02:45:35.572Z,99.60
2018-04-08T02:48:02.979Z,99.60
2018-04-08T02:50:31.155Z,99.90
2018-04-08T02:52:58.570Z,99.90
2018-04-08T02:55:25.968Z,99.90
2018-04-08T02:57:53.401Z,99.90
2018-04-08T03:00:20.814Z,99.90
2018-04-08T03:02:48.240Z,99.90
2018-04-08T03:05:16.432Z,99.90
2018-04-08T03:07:43.853Z,99.90
2018-04-08T03:10:11.260Z,99.90
2018-04-08T03:12:39.435Z,99.90
2018-04-08T03:15:07.609Z,99.90
2018-04-08T03:17:35.073Z,99.90
2018-04-08T03:20:02.476Z,99.90
2018-04-08T03:22:30.647Z,99.90
2018-04-08T03:24:58.052Z,99.90
2018-04-08T03:27:25.472Z,99.90
2018-04-08T03:29:52.888Z,99.90
2018-04-08T03:32:20.292Z,99.90
2018-04-08T03:34:47.708Z,99.90
2018-04-08T03:37:15.133Z,99.90
2018-04-08T03:39:42.548Z,99.90
2018-04-08T03:42:09.963Z,99.90
2018-04-08T03:44:38.128Z,99.90
2018-04-08T03:47:06.316Z,99.90
2018-04-08T03:49:33.723Z,99.90
2018-04-08T03:52:01.904Z,99.90
2018-04-08T03:54:29.317Z,99.90
2018-04-08T03:56:56.731Z,99.90
2018-04-08T03:59:25.640Z,99.90
2018-04-08T04:01:53.825Z,99.90
2018-04-08T04:04:21.236Z,99.90
2018-04-08T04:06:49.424Z,99.90
2018-04-08T04:09:16.884Z,99.90
2018-04-08T04:11:44.289Z,99.90
2018-04-08T04:14:12.481Z,99.90
2018-04-08T04:16:39.894Z,99.90
2018-04-08T04:19:19.852Z,99.90
2018-04-08T04:21:59.085Z,99.90
2018-04-08T04:24:38.234Z,99.90
2018-04-08T04:27:05.636Z,99.90
2018-04-08T04:29:33.040Z,99.90
2018-04-08T04:32:00.461Z,99.90
2018-04-08T04:34:27.894Z,99.90
2018-04-08T04:36:55.311Z,99.90
2018-04-08T04:39:22.725Z,99.90
2018-04-08T04:41:50.128Z,99.90
2018-04-08T04:44:18.304Z,99.90
2018-04-08T04:46:45.725Z,99.90
2018-04-08T04:49:13.918Z,99.90
2018-04-08T04:51:41.325Z,99.90
2018-04-08T04:54:08.812Z,99.90
2018-04-08T04:56:36.227Z,99.90
2018-04-08T04:59:04.418Z,99.90
2018-04-08T05:01:31.841Z,99.90
2018-04-08T05:03:59.240Z,99.90
2018-04-08T05:06:26.708Z,99.90
2018-04-08T05:08:54.894Z,99.90
2018-04-08T05:11:22.288Z,99.90
2018-04-08T05:13:49.703Z,99.90
2018-04-08T05:16:17.091Z,99.90
2018-04-08T05:18:45.261Z,99.90
2018-04-08T05:21:12.660Z,99.90
2018-04-08T05:23:40.082Z,99.90
2018-04-08T05:26:07.492Z,99.90
2018-04-08T05:28:34.908Z,99.90
2018-04-08T05:31:03.076Z,99.90
2018-04-08T05:33:30.496Z,99.90
2018-04-08T05:35:57.916Z,99.90
2018-04-08T05:38:25.329Z,99.90
2018-04-08T05:40:52.728Z,99.90
2018-04-08T05:43:20.904Z,99.90
2018-04-08T05:45:48.303Z,99.90
2018-04-08T05:48:15.721Z,99.90
2018-04-08T05:50:43.130Z,99.90
2018-04-08T05:53:10.532Z,99.90
2018-04-08T05:55:37.964Z,99.90
2018-04-08T05:58:05.396Z,99.90
2018-04-08T06:00:32.771Z,99.90
2018-04-08T06:03:00.941Z,99.70
2018-04-08T06:05:29.108Z,99.70
2018-04-08T06:07:56.528Z,99.60
2018-04-08T06:10:23.932Z,99.60
2018-04-08T06:12:51.340Z,99.60
2018-04-08T06:15:18.756Z,99.30
2018-04-08T06:17:46.915Z,98.90
2018-04-08T06:20:15.100Z,98.70
2018-04-08T06:22:42.513Z,98.70
2018-04-08T06:25:09.924Z,98.70
2018-04-08T06:27:37.320Z,98.50
2018-04-08T06:30:04.794Z,98.30
2018-04-08T06:32:32.192Z,97.80
2018-04-08T06:34:59.618Z,97.80
2018-04-08T06:37:27.863Z,96.90
2018-04-08T06:39:55.232Z,96.90
2018-04-08T06:42:23.401Z,96.80
2018-04-08T06:44:50.812Z,96.80
2018-04-08T06:47:18.221Z,96.80
2018-04-08T06:49:46.408Z,96.90
2018-04-08T06:52:13.798Z,96.80
2018-04-08T06:54:41.212Z,96.80
2018-04-08T06:57:09.387Z,96.50
2018-04-08T06:59:36.796Z,96.50
2018-04-08T07:02:04.975Z,95.80
2018-04-08T07:04:33.149Z,96.10
2018-04-08T07:07:00.553Z,96.00
2018-04-08T07:09:28.728Z,95.60
2018-04-08T07:11:56.948Z,95.70
2018-04-08T07:14:24.324Z,95.70
2018-04-08T07:16:52.500Z,95.80
2018-04-08T07:19:19.908Z,95.70
2018-04-08T07:21:47.316Z,95.40
2018-04-08T07:24:14.727Z,95.10
2018-04-08T07:26:42.126Z,94.60
2018-04-08T07:29:09.535Z,94.50
2018-04-08T07:31:36.975Z,94.50
2018-04-08T07:34:04.388Z,94.50
2018-04-08T07:36:31.796Z,94.30
2018-04-08T07:38:59.224Z,94.10
2018-04-08T07:41:26.644Z,93.70
2018-04-08T07:43:54.049Z,93.70
2018-04-08T07:46:21.460Z,93.30
2018-04-08T07:48:48.877Z,93.20
2018-04-08T07:51:16.285Z,93.20
2018-04-08T07:53:43.688Z,92.10
2018-04-08T07:56:11.868Z,91.80
2018-04-08T07:58:39.284Z,91.70
2018-04-08T08:01:07.465Z,91.20
2018-04-08T08:03:34.891Z,91.20
2018-04-08T08:06:02.297Z,91.30
2018-04-08T08:08:29.715Z,91.50
2018-04-08T08:10:57.441Z,91.50
2018-04-08T08:13:25.227Z,91.10
2018-04-08T08:15:52.616Z,90.70
2018-04-08T08:18:20.838Z,90.80
2018-04-08T08:20:48.206Z,90.80
2018-04-08T08:23:16.376Z,91.50
2018-04-08T08:25:43.787Z,91.00
2018-04-08T08:28:11.196Z,90.50
2018-04-08T08:30:38.632Z,90.80
2018-04-08T08:33:06.059Z,90.40
2018-04-08T08:35:33.456Z,90.60
2018-04-08T08:38:00.869Z,90.10
2018-04-08T08:40:28.285Z,89.80
2018-04-08T08:42:55.704Z,90.10
2018-04-08T08:45:23.996Z,88.40
2018-04-08T08:47:51.403Z,88.40
2018-04-08T08:50:19.598Z,87.60
2018-04-08T08:52:47.007Z,87.50
2018-04-08T08:55:15.200Z,86.40
2018-04-08T08:57:42.629Z,86.30
2018-04-08T09:00:10.033Z,84.70
2018-04-08T09:02:38.247Z,85.20
2018-04-08T09:05:05.644Z,84.50
2018-04-08T09:07:33.840Z,83.80
2018-04-08T09:10:01.248Z,83.80
2018-04-08T09:12:29.440Z,84.10
2018-04-08T09:14:56.848Z,84.00
2018-04-08T09:17:25.042Z,83.00
2018-04-08T09:23:09.493Z,80.50
2018-04-08T09:25:51.781Z,80.40
2018-04-08T09:28:19.221Z,82.70
2018-04-08T09:30:46.619Z,80.60
2018-04-08T09:33:14.791Z,80.00
2018-04-08T09:35:42.196Z,79.90
2018-04-08T09:38:09.611Z,79.10
2018-04-08T09:40:37.051Z,80.50
2018-04-08T09:43:04.447Z,79.60
2018-04-08T09:45:32.620Z,77.40
2018-04-08T09:48:00.022Z,77.30
2018-04-08T09:50:27.420Z,76.20
2018-04-08T09:52:54.868Z,76.40
2018-04-08T09:55:22.280Z,74.10
2018-04-08T10:01:08.105Z,77.50
2018-04-08T10:03:45.980Z,75.80
2018-04-08T10:06:13.384Z,75.50
2018-04-08T10:08:40.805Z,75.80
2018-04-08T10:11:08.977Z,72.60
2018-04-08T10:13:36.397Z,72.50
2018-04-08T10:16:04.570Z,71.50
2018-04-08T10:18:31.989Z,71.40
2018-04-08T10:20:59.403Z,75.70
2018-04-08T10:23:26.893Z,72.90
2018-04-08T10:25:55.075Z,67.10
2018-04-08T10:28:22.497Z,67.10
2018-04-08T10:30:49.973Z,67.90
2018-04-08T10:33:17.376Z,72.70
2018-04-08T10:35:44.855Z,68.60
2018-04-08T10:38:12.265Z,65.20
2018-04-08T10:40:39.677Z,67.70
2018-04-08T10:43:07.083Z,66.50
2018-04-08T10:45:34.521Z,64.60
2018-04-08T10:48:01.933Z,59.60
2018-04-08T10:50:29.336Z,58.10
2018-04-08T10:52:56.807Z,62.10
2018-04-08T10:55:25.000Z,62.00
2018-04-08T10:57:52.420Z,62.10
2018-04-08T11:00:19.844Z,58.90
2018-04-08T11:02:48.019Z,54.70
2018-04-08T11:05:15.449Z,54.60
2018-04-08T11:07:43.624Z,52.90
2018-04-08T11:10:11.054Z,52.80
2018-04-08T11:12:39.212Z,49.60
2018-04-08T11:15:06.621Z,49.40
2018-04-08T11:17:34.069Z,47.30
2018-04-08T11:20:01.481Z,45.60
2018-04-08T11:22:28.928Z,47.70
2018-04-08T11:24:56.320Z,48.00
2018-04-08T11:27:23.724Z,47.00
2018-04-08T11:29:51.136Z,44.00
2018-04-08T11:32:18.592Z,44.30
2018-04-08T11:34:46.019Z,42.30
2018-04-08T11:37:13.415Z,42.20
2018-04-08T11:39:41.596Z,41.80
2018-04-08T11:42:09.013Z,41.80
2018-04-08T11:44:37.187Z,42.10
2018-04-08T11:47:04.608Z,42.00
2018-04-08T11:49:32.807Z,40.60
2018-04-08T11:52:00.217Z,40.50
2018-04-08T11:54:27.626Z,38.80
2018-04-08T11:56:55.074Z,39.90
2018-04-08T11:59:22.448Z,40.60
2018-04-08T12:01:50.613Z,38.90
2018-04-08T12:04:18.011Z,39.50
2018-04-08T12:06:45.417Z,36.50
2018-04-08T12:09:12.849Z,34.40
2018-04-08T12:11:40.264Z,34.20
2018-04-08T12:14:07.664Z,35.70
2018-04-08T12:16:35.078Z,36.40
2018-04-08T12:19:02.532Z,34.80
2018-04-08T12:21:29.920Z,34.50
2018-04-08T12:23:58.085Z,35.60
2018-04-08T12:26:27.860Z,34.10
2018-04-08T12:28:55.265Z,34.20
2018-04-08T12:31:22.747Z,35.40
2018-04-08T12:33:50.084Z,33.90
2018-04-08T12:36:17.493Z,33.60
2018-04-08T12:38:44.892Z,30.90
2018-04-08T12:41:12.352Z,31.50
2018-04-08T12:43:39.865Z,30.70
2018-04-08T12:46:08.060Z,30.90
2018-04-08T12:48:35.518Z,30.80
2018-04-08T12:51:02.901Z,30.90
2018-04-08T12:53:31.063Z,31.20
2018-04-08T12:55:59.252Z,32.80
2018-04-08T12:58:26.660Z,32.80
2018-04-08T13:00:54.149Z,30.40
2018-04-08T13:03:21.544Z,31.80
2018-04-08T13:05:48.953Z,32.90
2018-04-08T13:08:16.377Z,30.50
2018-04-08T13:10:43.821Z,29.50
2018-04-08T13:13:11.220Z,30.00
2018-04-08T13:15:38.628Z,29.60
2018-04-08T13:18:06.031Z,30.50
2018-04-08T13:20:33.449Z,31.10
2018-04-08T13:23:00.912Z,32.30
2018-04-08T13:25:28.344Z,31.30
2018-04-08T13:27:56.512Z,31.50
2018-04-08T13:30:23.912Z,31.50
2018-04-08T13:32:52.081Z,30.00
2018-04-08T13:35:20.247Z,29.40
2018-04-08T13:37:47.712Z,29.40
2018-04-08T13:40:15.114Z,30.90
2018-04-08T13:42:43.321Z,31.20
2018-04-08T13:45:10.732Z,31.20
2018-04-08T13:47:38.912Z,32.50
2018-04-08T13:50:06.312Z,32.50
2018-04-08T13:52:34.500Z,30.60
2018-04-08T13:55:01.924Z,30.60
2018-04-08T13:57:30.108Z,31.00
2018-04-08T13:59:57.512Z,30.90
2018-04-08T14:02:25.684Z,30.30
2018-04-08T14:04:53.861Z,29.20
2018-04-08T14:07:21.336Z,29.50
2018-04-08T14:09:48.710Z,32.30
2018-04-08T14:12:16.108Z,34.10
2018-04-08T14:14:43.512Z,33.30
2018-04-08T14:17:10.920Z,33.50
2018-04-08T14:19:38.329Z,32.20
2018-04-08T14:22:05.736Z,30.50
2018-04-08T14:24:33.280Z,30.00
2018-04-08T14:27:00.620Z,30.30
2018-04-08T14:29:28.016Z,30.20
2018-04-08T14:31:55.524Z,31.70
2018-04-08T14:34:22.976Z,30.00
2018-04-08T14:36:50.386Z,30.00
2018-04-08T14:39:17.788Z,30.40
2018-04-08T14:41:45.296Z,30.00
2018-04-08T14:44:12.712Z,31.10
2018-04-08T14:46:40.177Z,30.10
2018-04-08T14:49:07.540Z,31.30
2018-04-08T14:51:34.944Z,30.70
2018-04-08T14:54:02.349Z,31.70
2018-04-08T14:56:30.519Z,30.00
2018-04-08T14:58:57.940Z,30.40
2018-04-08T15:01:25.344Z,31.20
2018-04-08T15:03:52.761Z,31.60
2018-04-08T15:06:20.164Z,32.00
2018-04-08T15:08:47.579Z,32.20
2018-04-08T15:11:15.023Z,33.60
2018-04-08T15:13:43.185Z,33.70
2018-04-08T15:16:10.589Z,33.70
2018-04-08T15:18:38.008Z,32.90
2018-04-08T15:21:06.200Z,32.30
2018-04-08T15:23:33.600Z,32.30
2018-04-08T15:26:01.772Z,33.20
2018-04-08T15:28:29.961Z,32.60
2018-04-08T15:30:57.768Z,32.50
2018-04-08T15:33:25.149Z,34.60
2018-04-08T15:35:52.552Z,33.30
2018-04-08T15:38:19.970Z,32.30
2018-04-08T15:40:47.368Z,33.90
2018-04-08T15:43:14.784Z,33.50
2018-04-08T15:45:42.961Z,33.70
2018-04-08T15:48:10.416Z,33.60
2018-04-08T15:50:37.876Z,31.60
2018-04-08T15:53:05.293Z,33.40
2018-04-08T15:55:32.736Z,33.80
2018-04-08T15:58:00.144Z,33.00
2018-04-08T16:00:28.316Z,33.90
2018-04-08T16:02:55.752Z,33.80
2018-04-08T16:05:23.931Z,34.20
2018-04-08T16:07:51.327Z,34.10
2018-04-08T16:10:18.829Z,34.70
2018-04-08T16:12:46.240Z,34.00
2018-04-08T16:15:14.430Z,30.70
2018-04-08T16:17:41.872Z,30.70
2018-04-08T16:20:09.310Z,30.40
2018-04-08T16:22:37.452Z,31.50
2018-04-08T16:25:04.863Z,31.50
2018-04-08T16:27:33.065Z,31.80
2018-04-08T16:30:00.476Z,31.60
2018-04-08T16:32:28.639Z,32.60
2018-04-08T16:34:56.812Z,32.60
2018-04-08T16:37:24.220Z,32.60
2018-04-08T16:39:51.625Z,33.10
2018-04-08T16:42:19.031Z,34.00
2018-04-08T16:44:46.443Z,34.00
2018-04-08T16:47:13.857Z,34.00
2018-04-08T16:49:41.372Z,33.80
2018-04-08T16:52:08.812Z,34.40
2018-04-08T16:54:36.220Z,35.00
2018-04-08T16:57:04.452Z,35.00
2018-04-08T16:59:31.824Z,34.90
2018-04-08T17:01:59.992Z,36.60
2018-04-08T17:04:27.454Z,36.60
2018-04-08T17:06:54.820Z,36.90
2018-04-08T17:09:22.268Z,37.10
2018-04-08T17:11:49.633Z,37.70
2018-04-08T17:14:17.069Z,37.80
2018-04-08T17:16:44.564Z,38.60
2018-04-08T17:19:11.968Z,38.60
2018-04-08T17:21:40.139Z,39.40
2018-04-08T17:24:07.539Z,39.40
2018-04-08T17:26:34.954Z,39.70
2018-04-08T17:29:02.364Z,40.10
2018-04-08T17:31:29.768Z,41.20
2018-04-08T17:33:57.178Z,39.80
2018-04-08T17:36:24.661Z,39.60
2018-04-08T17:38:52.060Z,40.70
2018-04-08T17:41:19.477Z,41.40
2018-04-08T17:43:46.877Z,41.20
2018-04-08T17:46:14.284Z,41.20
2018-04-08T17:48:41.690Z,41.60
2018-04-08T17:51:09.091Z,41.00
2018-04-08T17:53:36.616Z,40.70
2018-04-08T17:56:04.037Z,40.90
2018-04-08T17:58:31.435Z,43.30
2018-04-08T18:00:58.852Z,41.80
2018-04-08T18:03:26.245Z,43.30
2018-04-08T18:05:53.661Z,43.40
2018-04-08T18:08:21.064Z,43.50
2018-04-08T18:10:48.476Z,44.10
2018-04-08T18:13:15.903Z,43.80
2018-04-08T18:15:44.077Z,45.40
2018-04-08T18:18:11.529Z,45.40
2018-04-08T18:20:39.000Z,46.10
2018-04-08T18:23:06.402Z,46.90
2018-04-08T18:25:33.828Z,46.90
2018-04-08T18:28:01.233Z,47.60
2018-04-08T18:30:28.661Z,47.80
2018-04-08T18:32:56.061Z,50.00
2018-04-08T18:35:23.480Z,50.40
2018-04-08T18:37:51.698Z,51.20
2018-04-08T18:40:19.101Z,51.20
2018-04-08T18:42:46.524Z,51.00
2018-04-08T18:45:14.737Z,52.80
2018-04-08T18:47:42.894Z,51.90
2018-04-08T18:50:10.301Z,51.80
2018-04-08T18:52:37.778Z,53.50
2018-04-08T18:55:05.181Z,52.60
2018-04-08T18:57:32.655Z,54.10
2018-04-08T19:00:00.077Z,53.30
2018-04-08T19:02:27.496Z,54.90
2018-04-08T19:04:55.698Z,54.60
2018-04-08T19:07:23.096Z,54.40
2018-04-08T19:09:51.272Z,54.20
2018-04-08T19:12:18.687Z,54.10
2018-04-08T19:14:52.803Z,56.60
2018-04-08T19:17:26.547Z,56.00
2018-04-08T19:19:53.956Z,56.00
2018-04-08T19:22:21.379Z,57.90
2018-04-08T19:24:48.787Z,57.50
2018-04-08T19:27:21.790Z,56.40
2018-04-08T19:29:49.964Z,57.40
2018-04-08T19:32:17.378Z,57.40
2018-04-08T19:34:45.686Z,59.70
2018-04-08T19:37:13.092Z,59.70
2018-04-08T19:39:40.505Z,59.90
2018-04-08T19:42:07.921Z,63.10
2018-04-08T19:44:35.337Z,62.90
2018-04-08T19:47:02.818Z,61.80
2018-04-08T19:49:30.183Z,65.30
2018-04-08T19:51:58.393Z,66.30
2018-04-08T19:54:25.803Z,66.30
2018-04-08T19:56:53.276Z,65.50
2018-04-08T19:59:20.685Z,67.20
2018-04-08T20:01:48.096Z,68.20
2018-04-08T20:04:15.557Z,69.70
2018-04-08T20:06:42.928Z,69.80
2018-04-08T20:09:10.339Z,69.00
2018-04-08T20:11:38.500Z,71.50
2018-04-08T20:14:06.669Z,71.10
2018-04-08T20:16:34.093Z,71.00
2018-04-08T20:19:02.272Z,71.70
2018-04-08T20:21:29.693Z,71.70
2018-04-08T20:23:57.876Z,72.20
2018-04-08T20:26:25.272Z,72.20
2018-04-08T20:28:53.090Z,74.50
2018-04-08T20:31:20.483Z,73.20
2018-04-08T20:33:48.650Z,74.50
2018-04-08T20:36:16.803Z,74.70
2018-04-08T20:38:44.972Z,74.50
2018-04-08T20:41:12.393Z,74.40
2018-04-08T20:43:39.789Z,75.90
2018-04-08T20:46:07.193Z,75.80
2018-04-08T20:48:34.596Z,75.70
2018-04-08T20:51:02.033Z,76.10
2018-04-08T20:53:29.444Z,75.80
2018-04-08T20:55:56.887Z,77.10
2018-04-08T20:58:24.312Z,76.00
2018-04-08T21:00:51.744Z,76.30
2018-04-08T21:03:19.159Z,76.70
2018-04-08T21:05:46.557Z,77.30
2018-04-08T21:08:13.966Z,77.70
2018-04-08T21:10:41.382Z,77.80
2018-04-08T21:13:08.793Z,78.90
2018-04-08T21:15:36.198Z,78.60
2018-04-08T21:18:03.600Z,78.60
2018-04-08T21:20:31.088Z,79.60
2018-04-08T21:22:58.512Z,79.60
2018-04-08T21:25:26.697Z,79.90
2018-04-08T21:27:54.129Z,79.80
2018-04-08T21:30:21.548Z,80.30
2018-04-08T21:32:49.730Z,81.30
2018-04-08T21:35:17.120Z,81.20
2018-04-08T21:37:44.525Z,81.70
2018-04-08T21:40:11.939Z,82.30
2018-04-08T21:42:39.365Z,82.00
2018-04-08T21:45:07.536Z,82.70
2018-04-08T21:47:35.700Z,82.70
2018-04-08T21:50:03.109Z,82.70
2018-04-08T21:52:31.292Z,83.70
2018-04-08T21:54:58.701Z,83.60
2018-04-08T21:57:26.121Z,84.50
2018-04-08T21:59:53.531Z,83.70
2018-04-08T22:02:20.936Z,83.90
2018-04-08T22:04:49.164Z,84.20
2018-04-08T22:07:16.575Z,84.20
2018-04-08T22:09:44.051Z,84.20
2018-04-08T22:12:11.487Z,84.40
2018-04-08T22:14:38.885Z,84.20
2018-04-08T22:17:06.316Z,84.50
2018-04-08T22:19:34.490Z,84.70
2018-04-08T22:22:01.911Z,84.70
2018-04-08T22:24:30.080Z,85.50
2018-04-08T22:26:58.255Z,85.10
2018-04-08T22:29:25.684Z,85.00
2018-04-08T22:31:53.091Z,85.00
2018-04-08T22:34:20.488Z,85.20
2018-04-08T22:36:47.936Z,85.30
2018-04-08T22:39:15.328Z,85.00
2018-04-08T22:41:43.544Z,84.80
2018-04-08T22:44:10.904Z,84.70
2018-04-08T22:46:38.334Z,85.80
2018-04-08T22:49:05.743Z,86.50
2018-04-08T22:51:33.193Z,87.20
2018-04-08T22:54:00.612Z,87.50
2018-04-08T22:56:28.030Z,87.10
2018-04-08T22:58:55.439Z,85.80
2018-04-08T23:01:22.852Z,86.00
2018-04-08T23:03:50.252Z,86.20
2018-04-08T23:06:18.432Z,88.10
2018-04-08T23:08:45.861Z,87.20
2018-04-08T23:11:14.034Z,88.10
2018-04-08T23:13:41.499Z,88.00
2018-04-08T23:16:08.915Z,87.20
2018-04-08T23:18:36.328Z,87.60
2018-04-08T23:21:03.757Z,88.00
2018-04-08T23:23:31.272Z,88.30
2018-04-08T23:25:58.692Z,88.10
2018-04-08T23:28:26.104Z,89.30
2018-04-08T23:30:54.417Z,89.70
2018-04-08T23:33:21.860Z,89.40
2018-04-08T23:35:49.276Z,89.10
2018-04-08T23:38:17.459Z,89.40
2018-04-08T23:40:44.864Z,89.40
2018-04-08T23:43:13.044Z,90.30
2018-04-08T23:45:40.480Z,90.30
2018-04-08T23:48:07.887Z,90.20
2018-04-08T23:50:36.073Z,90.30
2018-04-08T23:53:03.473Z,90.30
2018-04-08T23:55:30.893Z,90.10
2018-04-08T23:57:58.315Z,90.80
